sensor_id;sensor_type;location;lat;lon;timestamp;P1;durP1;ratioP1;P2;durP2;ratioP2
1759;SDS011;877;46.266;20.062;2023-02-14T00:00:26;35.20;;;19.90;;
1759;SDS011;877;46.266;20.062;2023-02-14T00:02:52;35.22;;;18.45;;
1759;SDS011;877;46.266;20.062;2023-02-14T00:05:19;23.85;;;13.20;;
1759;SDS011;877;46.266;20.062;2023-02-14T00:07:46;24.88;;;14.68;;
1759;SDS011;877;46.266;20.062;2023-02-14T00:10:12;27.63;;;15.10;;
1759;SDS011;877;46.266;20.062;2023-02-14T00:12:39;28.35;;;16.55;;
1759;SDS011;877;46.266;20.062;2023-02-14T00:15:06;29.73;;;17.63;;
1759;SDS011;877;46.266;20.062;2023-02-14T00:17:48;41.28;;;14.68;;
1759;SDS011;877;46.266;20.062;2023-02-14T00:20:15;32.25;;;19.52;;
1759;SDS011;877;46.266;20.062;2023-02-14T00:22:41;25.83;;;15.63;;
1759;SDS011;877;46.266;20.062;2023-02-14T00:25:09;27.08;;;17.88;;
1759;SDS011;877;46.266;20.062;2023-02-14T00:27:36;27.60;;;15.02;;
1759;SDS011;877;46.266;20.062;2023-02-14T00:30:03;31.17;;;18.23;;
1759;SDS011;877;46.266;20.062;2023-02-14T00:32:31;25.25;;;15.57;;
1759;SDS011;877;46.266;20.062;2023-02-14T00:34:59;25.08;;;14.43;;
1759;SDS011;877;46.266;20.062;2023-02-14T00:37:26;29.38;;;13.52;;
1759;SDS011;877;46.266;20.062;2023-02-14T00:39:56;22.80;;;13.43;;
1759;SDS011;877;46.266;20.062;2023-02-14T00:42:23;26.25;;;14.13;;
1759;SDS011;877;46.266;20.062;2023-02-14T00:44:50;26.52;;;14.45;;
1759;SDS011;877;46.266;20.062;2023-02-14T00:47:17;24.38;;;14.10;;
1759;SDS011;877;46.266;20.062;2023-02-14T00:49:45;23.75;;;13.25;;
1759;SDS011;877;46.266;20.062;2023-02-14T00:52:12;28.13;;;15.35;;
1759;SDS011;877;46.266;20.062;2023-02-14T00:54:39;24.80;;;13.77;;
1759;SDS011;877;46.266;20.062;2023-02-14T00:57:06;28.95;;;14.55;;
1759;SDS011;877;46.266;20.062;2023-02-14T00:59:32;26.55;;;14.80;;
1759;SDS011;877;46.266;20.062;2023-02-14T01:02:00;22.38;;;13.63;;
1759;SDS011;877;46.266;20.062;2023-02-14T01:04:37;24.52;;;13.32;;
1759;SDS011;877;46.266;20.062;2023-02-14T01:07:04;25.27;;;14.25;;
1759;SDS011;877;46.266;20.062;2023-02-14T01:09:30;21.35;;;13.65;;
1759;SDS011;877;46.266;20.062;2023-02-14T01:11:56;22.92;;;13.93;;
1759;SDS011;877;46.266;20.062;2023-02-14T01:14:24;24.00;;;12.93;;
1759;SDS011;877;46.266;20.062;2023-02-14T01:16:52;22.58;;;13.23;;
1759;SDS011;877;46.266;20.062;2023-02-14T01:19:20;22.17;;;14.07;;
1759;SDS011;877;46.266;20.062;2023-02-14T01:21:47;22.30;;;13.57;;
1759;SDS011;877;46.266;20.062;2023-02-14T01:24:14;23.13;;;13.38;;
1759;SDS011;877;46.266;20.062;2023-02-14T01:26:41;28.88;;;14.70;;
1759;SDS011;877;46.266;20.062;2023-02-14T01:29:07;31.58;;;16.42;;
1759;SDS011;877;46.266;20.062;2023-02-14T01:31:37;41.53;;;18.35;;
1759;SDS011;877;46.266;20.062;2023-02-14T01:34:03;35.42;;;19.35;;
1759;SDS011;877;46.266;20.062;2023-02-14T01:36:32;39.17;;;19.70;;
1759;SDS011;877;46.266;20.062;2023-02-14T01:39:01;43.75;;;20.65;;
1759;SDS011;877;46.266;20.062;2023-02-14T01:41:27;31.05;;;18.40;;
1759;SDS011;877;46.266;20.062;2023-02-14T01:44:49;31.70;;;18.05;;
1759;SDS011;877;46.266;20.062;2023-02-14T01:46:52;35.40;;;18.98;;
1759;SDS011;877;46.266;20.062;2023-02-14T01:49:25;27.92;;;15.00;;
1759;SDS011;877;46.266;20.062;2023-02-14T01:54:31;32.47;;;17.42;;
1759;SDS011;877;46.266;20.062;2023-02-14T01:57:01;33.28;;;16.77;;
1759;SDS011;877;46.266;20.062;2023-02-14T01:59:31;32.25;;;17.70;;
1759;SDS011;877;46.266;20.062;2023-02-14T02:02:00;29.30;;;17.38;;
1759;SDS011;877;46.266;20.062;2023-02-14T02:04:30;27.00;;;17.92;;
1759;SDS011;877;46.266;20.062;2023-02-14T02:06:58;30.52;;;15.82;;
1759;SDS011;877;46.266;20.062;2023-02-14T02:09:59;28.75;;;15.55;;
1759;SDS011;877;46.266;20.062;2023-02-14T02:12:20;27.35;;;16.20;;
1759;SDS011;877;46.266;20.062;2023-02-14T02:14:46;33.70;;;17.27;;
1759;SDS011;877;46.266;20.062;2023-02-14T02:22:57;29.77;;;14.80;;
1759;SDS011;877;46.266;20.062;2023-02-14T02:25:45;29.75;;;14.82;;
1759;SDS011;877;46.266;20.062;2023-02-14T02:46:36;25.77;;;15.40;;
1759;SDS011;877;46.266;20.062;2023-02-14T02:55:39;25.95;;;15.23;;
1759;SDS011;877;46.266;20.062;2023-02-14T02:58:40;27.42;;;14.90;;
1759;SDS011;877;46.266;20.062;2023-02-14T03:01:11;27.88;;;15.88;;
1759;SDS011;877;46.266;20.062;2023-02-14T03:03:39;27.42;;;16.17;;
1759;SDS011;877;46.266;20.062;2023-02-14T03:06:28;28.92;;;15.82;;
1759;SDS011;877;46.266;20.062;2023-02-14T03:08:54;23.98;;;14.63;;
1759;SDS011;877;46.266;20.062;2023-02-14T03:11:20;25.05;;;15.05;;
1759;SDS011;877;46.266;20.062;2023-02-14T03:16:22;30.13;;;16.23;;
1759;SDS011;877;46.266;20.062;2023-02-14T03:21:59;24.55;;;14.27;;
1759;SDS011;877;46.266;20.062;2023-02-14T03:32:30;25.63;;;15.40;;
1759;SDS011;877;46.266;20.062;2023-02-14T03:37:31;28.83;;;15.77;;
1759;SDS011;877;46.266;20.062;2023-02-14T03:42:36;28.15;;;16.77;;
1759;SDS011;877;46.266;20.062;2023-02-14T03:45:11;31.35;;;16.65;;
1759;SDS011;877;46.266;20.062;2023-02-14T03:47:38;26.95;;;16.27;;
1759;SDS011;877;46.266;20.062;2023-02-14T03:50:08;30.60;;;16.88;;
1759;SDS011;877;46.266;20.062;2023-02-14T03:52:36;30.95;;;18.63;;
1759;SDS011;877;46.266;20.062;2023-02-14T04:00:10;35.20;;;17.67;;
1759;SDS011;877;46.266;20.062;2023-02-14T04:02:37;31.17;;;16.52;;
1759;SDS011;877;46.266;20.062;2023-02-14T04:05:06;30.40;;;15.77;;
1759;SDS011;877;46.266;20.062;2023-02-14T04:07:46;27.38;;;17.10;;
1759;SDS011;877;46.266;20.062;2023-02-14T04:10:12;26.88;;;15.13;;
1759;SDS011;877;46.266;20.062;2023-02-14T04:15:08;30.50;;;16.98;;
1759;SDS011;877;46.266;20.062;2023-02-14T04:17:37;28.20;;;15.75;;
1759;SDS011;877;46.266;20.062;2023-02-14T04:20:23;28.88;;;15.35;;
1759;SDS011;877;46.266;20.062;2023-02-14T04:22:50;33.13;;;16.73;;
1759;SDS011;877;46.266;20.062;2023-02-14T04:25:17;30.58;;;16.63;;
1759;SDS011;877;46.266;20.062;2023-02-14T04:27:43;29.70;;;16.52;;
1759;SDS011;877;46.266;20.062;2023-02-14T04:30:09;30.73;;;15.52;;
1759;SDS011;877;46.266;20.062;2023-02-14T04:32:38;27.80;;;16.25;;
1759;SDS011;877;46.266;20.062;2023-02-14T04:35:06;29.33;;;15.40;;
1759;SDS011;877;46.266;20.062;2023-02-14T04:37:33;31.98;;;17.42;;
1759;SDS011;877;46.266;20.062;2023-02-14T04:40:00;36.17;;;17.20;;
1759;SDS011;877;46.266;20.062;2023-02-14T04:42:26;33.05;;;16.98;;
1759;SDS011;877;46.266;20.062;2023-02-14T04:44:53;30.25;;;15.63;;
1759;SDS011;877;46.266;20.062;2023-02-14T04:47:21;28.55;;;16.52;;
1759;SDS011;877;46.266;20.062;2023-02-14T04:52:16;28.55;;;13.90;;
1759;SDS011;877;46.266;20.062;2023-02-14T04:54:42;29.15;;;14.60;;
1759;SDS011;877;46.266;20.062;2023-02-14T04:57:09;26.85;;;15.10;;
1759;SDS011;877;46.266;20.062;2023-02-14T04:59:36;25.80;;;15.00;;
1759;SDS011;877;46.266;20.062;2023-02-14T05:02:04;26.40;;;15.70;;
1759;SDS011;877;46.266;20.062;2023-02-14T05:04:32;30.00;;;16.48;;
1759;SDS011;877;46.266;20.062;2023-02-14T05:07:00;25.13;;;15.18;;
1759;SDS011;877;46.266;20.062;2023-02-14T05:09:30;21.10;;;12.60;;
1759;SDS011;877;46.266;20.062;2023-02-14T05:11:58;27.95;;;14.55;;
1759;SDS011;877;46.266;20.062;2023-02-14T05:14:26;27.65;;;14.73;;
1759;SDS011;877;46.266;20.062;2023-02-14T05:19:23;28.48;;;15.00;;
1759;SDS011;877;46.266;20.062;2023-02-14T05:21:55;29.55;;;16.33;;
1759;SDS011;877;46.266;20.062;2023-02-14T05:24:27;26.88;;;15.00;;
1759;SDS011;877;46.266;20.062;2023-02-14T05:26:58;33.92;;;18.42;;
1759;SDS011;877;46.266;20.062;2023-02-14T05:29:27;31.70;;;16.30;;
1759;SDS011;877;46.266;20.062;2023-02-14T05:31:55;32.70;;;16.88;;
1759;SDS011;877;46.266;20.062;2023-02-14T05:34:23;31.70;;;17.40;;
1759;SDS011;877;46.266;20.062;2023-02-14T05:36:49;32.42;;;17.05;;
1759;SDS011;877;46.266;20.062;2023-02-14T05:39:15;32.30;;;16.65;;
1759;SDS011;877;46.266;20.062;2023-02-14T05:41:42;30.58;;;16.63;;
1759;SDS011;877;46.266;20.062;2023-02-14T05:44:08;44.58;;;20.38;;
1759;SDS011;877;46.266;20.062;2023-02-14T05:46:38;33.03;;;19.73;;
1759;SDS011;877;46.266;20.062;2023-02-14T05:49:06;30.73;;;18.55;;
1759;SDS011;877;46.266;20.062;2023-02-14T05:51:33;34.40;;;17.10;;
1759;SDS011;877;46.266;20.062;2023-02-14T05:54:03;30.15;;;16.02;;
1759;SDS011;877;46.266;20.062;2023-02-14T05:56:29;30.70;;;15.93;;
1759;SDS011;877;46.266;20.062;2023-02-14T05:58:55;32.75;;;16.65;;
1759;SDS011;877;46.266;20.062;2023-02-14T06:03:50;29.95;;;16.40;;
1759;SDS011;877;46.266;20.062;2023-02-14T06:06:17;32.60;;;15.93;;
1759;SDS011;877;46.266;20.062;2023-02-14T06:08:45;28.23;;;16.63;;
1759;SDS011;877;46.266;20.062;2023-02-14T06:11:15;27.75;;;16.58;;
1759;SDS011;877;46.266;20.062;2023-02-14T06:13:41;29.67;;;16.33;;
1759;SDS011;877;46.266;20.062;2023-02-14T06:16:09;27.55;;;16.02;;
1759;SDS011;877;46.266;20.062;2023-02-14T06:18:49;30.30;;;17.17;;
1759;SDS011;877;46.266;20.062;2023-02-14T06:21:15;28.63;;;14.60;;
1759;SDS011;877;46.266;20.062;2023-02-14T06:23:41;29.48;;;16.35;;
1759;SDS011;877;46.266;20.062;2023-02-14T06:26:16;33.60;;;17.67;;
1759;SDS011;877;46.266;20.062;2023-02-14T06:28:43;29.30;;;16.52;;
1759;SDS011;877;46.266;20.062;2023-02-14T06:33:47;30.95;;;15.75;;
1759;SDS011;877;46.266;20.062;2023-02-14T06:36:14;29.40;;;17.33;;
1759;SDS011;877;46.266;20.062;2023-02-14T06:38:41;32.83;;;17.88;;
1759;SDS011;877;46.266;20.062;2023-02-14T06:41:08;29.63;;;16.92;;
1759;SDS011;877;46.266;20.062;2023-02-14T06:43:41;32.80;;;17.70;;
1759;SDS011;877;46.266;20.062;2023-02-14T06:51:10;34.22;;;17.75;;
1759;SDS011;877;46.266;20.062;2023-02-14T06:56:25;29.17;;;16.60;;
1759;SDS011;877;46.266;20.062;2023-02-14T06:58:54;29.77;;;16.20;;
1759;SDS011;877;46.266;20.062;2023-02-14T07:01:20;28.70;;;16.40;;
1759;SDS011;877;46.266;20.062;2023-02-14T07:03:48;38.30;;;20.00;;
1759;SDS011;877;46.266;20.062;2023-02-14T07:06:14;38.15;;;19.95;;
1759;SDS011;877;46.266;20.062;2023-02-14T07:08:41;44.75;;;24.38;;
1759;SDS011;877;46.266;20.062;2023-02-14T07:11:08;44.67;;;23.38;;
1759;SDS011;877;46.266;20.062;2023-02-14T07:16:09;60.05;;;27.88;;
1759;SDS011;877;46.266;20.062;2023-02-14T07:18:41;50.22;;;28.58;;
1759;SDS011;877;46.266;20.062;2023-02-14T07:21:09;43.33;;;24.38;;
1759;SDS011;877;46.266;20.062;2023-02-14T07:23:36;38.92;;;20.77;;
1759;SDS011;877;46.266;20.062;2023-02-14T07:26:03;38.22;;;20.67;;
1759;SDS011;877;46.266;20.062;2023-02-14T07:31:00;40.28;;;22.10;;
1759;SDS011;877;46.266;20.062;2023-02-14T07:33:27;38.33;;;20.58;;
1759;SDS011;877;46.266;20.062;2023-02-14T07:35:53;36.17;;;18.65;;
1759;SDS011;877;46.266;20.062;2023-02-14T07:38:22;32.50;;;18.52;;
1759;SDS011;877;46.266;20.062;2023-02-14T07:43:19;32.88;;;19.35;;
1759;SDS011;877;46.266;20.062;2023-02-14T07:48:15;35.13;;;19.40;;
1759;SDS011;877;46.266;20.062;2023-02-14T07:50:43;31.15;;;18.20;;
1759;SDS011;877;46.266;20.062;2023-02-14T07:53:17;30.17;;;18.75;;
1759;SDS011;877;46.266;20.062;2023-02-14T07:55:47;32.92;;;18.13;;
1759;SDS011;877;46.266;20.062;2023-02-14T07:58:13;32.65;;;17.40;;
1759;SDS011;877;46.266;20.062;2023-02-14T08:00:39;37.55;;;21.45;;
1759;SDS011;877;46.266;20.062;2023-02-14T08:03:05;34.72;;;19.08;;
1759;SDS011;877;46.266;20.062;2023-02-14T08:05:32;35.33;;;19.80;;
1759;SDS011;877;46.266;20.062;2023-02-14T08:07:59;35.85;;;21.02;;
1759;SDS011;877;46.266;20.062;2023-02-14T08:10:26;36.90;;;19.02;;
1759;SDS011;877;46.266;20.062;2023-02-14T08:12:53;35.88;;;20.80;;
1759;SDS011;877;46.266;20.062;2023-02-14T08:15:29;43.72;;;20.90;;
1759;SDS011;877;46.266;20.062;2023-02-14T08:18:14;41.03;;;21.15;;
1759;SDS011;877;46.266;20.062;2023-02-14T08:20:42;38.38;;;21.52;;
1759;SDS011;877;46.266;20.062;2023-02-14T08:23:08;39.45;;;20.73;;
1759;SDS011;877;46.266;20.062;2023-02-14T08:25:34;39.85;;;23.40;;
1759;SDS011;877;46.266;20.062;2023-02-14T08:28:04;37.13;;;21.23;;
1759;SDS011;877;46.266;20.062;2023-02-14T08:30:31;40.28;;;22.00;;
1759;SDS011;877;46.266;20.062;2023-02-14T08:33:01;43.25;;;25.95;;
1759;SDS011;877;46.266;20.062;2023-02-14T08:37:59;42.17;;;22.10;;
1759;SDS011;877;46.266;20.062;2023-02-14T08:40:25;43.25;;;23.88;;
1759;SDS011;877;46.266;20.062;2023-02-14T08:42:52;45.53;;;23.20;;
1759;SDS011;877;46.266;20.062;2023-02-14T08:45:21;41.88;;;25.48;;
1759;SDS011;877;46.266;20.062;2023-02-14T08:47:48;42.22;;;23.73;;
1759;SDS011;877;46.266;20.062;2023-02-14T08:50:15;44.42;;;24.95;;
1759;SDS011;877;46.266;20.062;2023-02-14T08:52:41;42.30;;;23.00;;
1759;SDS011;877;46.266;20.062;2023-02-14T08:55:08;44.22;;;24.75;;
1759;SDS011;877;46.266;20.062;2023-02-14T08:57:36;41.00;;;23.15;;
1759;SDS011;877;46.266;20.062;2023-02-14T09:02:39;49.65;;;26.20;;
1759;SDS011;877;46.266;20.062;2023-02-14T09:05:05;40.08;;;24.27;;
1759;SDS011;877;46.266;20.062;2023-02-14T09:07:34;48.90;;;25.40;;
1759;SDS011;877;46.266;20.062;2023-02-14T09:10:02;43.65;;;24.45;;
1759;SDS011;877;46.266;20.062;2023-02-14T09:12:29;49.95;;;28.02;;
1759;SDS011;877;46.266;20.062;2023-02-14T09:14:55;53.22;;;25.60;;
1759;SDS011;877;46.266;20.062;2023-02-14T09:17:21;45.42;;;25.30;;
1759;SDS011;877;46.266;20.062;2023-02-14T09:19:56;39.75;;;24.48;;
1759;SDS011;877;46.266;20.062;2023-02-14T09:22:24;44.78;;;24.95;;
1759;SDS011;877;46.266;20.062;2023-02-14T09:24:50;48.65;;;27.13;;
1759;SDS011;877;46.266;20.062;2023-02-14T09:27:16;40.50;;;24.17;;
1759;SDS011;877;46.266;20.062;2023-02-14T09:29:42;44.03;;;26.42;;
1759;SDS011;877;46.266;20.062;2023-02-14T09:32:09;51.42;;;28.38;;
1759;SDS011;877;46.266;20.062;2023-02-14T09:34:36;48.25;;;28.73;;
1759;SDS011;877;46.266;20.062;2023-02-14T09:37:03;48.55;;;27.15;;
1759;SDS011;877;46.266;20.062;2023-02-14T09:39:49;47.75;;;26.70;;
1759;SDS011;877;46.266;20.062;2023-02-14T09:45:01;45.80;;;25.92;;
1759;SDS011;877;46.266;20.062;2023-02-14T09:47:36;49.88;;;26.63;;
1759;SDS011;877;46.266;20.062;2023-02-14T09:53:31;49.58;;;27.27;;
1759;SDS011;877;46.266;20.062;2023-02-14T10:01:37;38.47;;;21.42;;
1759;SDS011;877;46.266;20.062;2023-02-14T10:19:37;40.67;;;22.40;;
1759;SDS011;877;46.266;20.062;2023-02-14T10:22:16;39.25;;;21.52;;
1759;SDS011;877;46.266;20.062;2023-02-14T10:24:47;40.95;;;21.55;;
1759;SDS011;877;46.266;20.062;2023-02-14T10:27:25;35.00;;;18.98;;
1759;SDS011;877;46.266;20.062;2023-02-14T10:29:54;33.28;;;19.98;;
1759;SDS011;877;46.266;20.062;2023-02-14T10:32:55;32.90;;;18.60;;
1759;SDS011;877;46.266;20.062;2023-02-14T10:38:30;30.90;;;17.35;;
1759;SDS011;877;46.266;20.062;2023-02-14T10:43:35;31.50;;;18.63;;
1759;SDS011;877;46.266;20.062;2023-02-14T10:51:45;24.75;;;15.13;;
1759;SDS011;877;46.266;20.062;2023-02-14T10:54:34;35.33;;;16.25;;
1759;SDS011;877;46.266;20.062;2023-02-14T10:57:17;32.92;;;16.67;;
1759;SDS011;877;46.266;20.062;2023-02-14T11:00:04;29.42;;;16.63;;
1759;SDS011;877;46.266;20.062;2023-02-14T11:02:37;27.20;;;16.95;;
1759;SDS011;877;46.266;20.062;2023-02-14T11:05:05;34.72;;;20.95;;
1759;SDS011;877;46.266;20.062;2023-02-14T11:07:43;33.03;;;18.70;;
1759;SDS011;877;46.266;20.062;2023-02-14T11:10:11;31.77;;;18.10;;
1759;SDS011;877;46.266;20.062;2023-02-14T11:12:40;33.20;;;18.50;;
1759;SDS011;877;46.266;20.062;2023-02-14T11:23:56;32.35;;;17.00;;
1759;SDS011;877;46.266;20.062;2023-02-14T11:26:29;32.85;;;19.25;;
1759;SDS011;877;46.266;20.062;2023-02-14T11:29:02;28.75;;;18.25;;
1759;SDS011;877;46.266;20.062;2023-02-14T11:31:31;35.03;;;19.35;;
1759;SDS011;877;46.266;20.062;2023-02-14T11:36:38;32.92;;;18.88;;
1759;SDS011;877;46.266;20.062;2023-02-14T11:39:16;32.80;;;17.95;;
1759;SDS011;877;46.266;20.062;2023-02-14T11:41:52;35.83;;;20.40;;
1759;SDS011;877;46.266;20.062;2023-02-14T11:44:21;31.67;;;18.08;;
1759;SDS011;877;46.266;20.062;2023-02-14T11:46:48;32.22;;;17.92;;
1759;SDS011;877;46.266;20.062;2023-02-14T11:49:25;37.97;;;21.45;;
1759;SDS011;877;46.266;20.062;2023-02-14T11:52:06;33.58;;;19.52;;
1759;SDS011;877;46.266;20.062;2023-02-14T11:57:23;36.28;;;20.40;;
1759;SDS011;877;46.266;20.062;2023-02-14T11:59:52;34.13;;;19.08;;
1759;SDS011;877;46.266;20.062;2023-02-14T12:02:25;40.10;;;19.90;;
1759;SDS011;877;46.266;20.062;2023-02-14T12:23:43;28.77;;;15.65;;
1759;SDS011;877;46.266;20.062;2023-02-14T12:34:52;25.88;;;14.98;;
1759;SDS011;877;46.266;20.062;2023-02-14T12:48:45;30.23;;;18.00;;
1759;SDS011;877;46.266;20.062;2023-02-14T12:51:20;30.23;;;17.25;;
1759;SDS011;877;46.266;20.062;2023-02-14T12:53:58;29.30;;;16.85;;
1759;SDS011;877;46.266;20.062;2023-02-14T12:59:27;36.00;;;19.33;;
1759;SDS011;877;46.266;20.062;2023-02-14T13:21:23;25.08;;;16.27;;
1759;SDS011;877;46.266;20.062;2023-02-14T13:23:52;27.10;;;15.57;;
1759;SDS011;877;46.266;20.062;2023-02-14T13:29:12;28.15;;;15.00;;
1759;SDS011;877;46.266;20.062;2023-02-14T13:31:45;31.40;;;18.35;;
1759;SDS011;877;46.266;20.062;2023-02-14T13:37:16;30.73;;;17.20;;
1759;SDS011;877;46.266;20.062;2023-02-14T13:58:31;29.48;;;17.42;;
1759;SDS011;877;46.266;20.062;2023-02-14T14:03:51;25.95;;;17.60;;
1759;SDS011;877;46.266;20.062;2023-02-14T14:06:22;30.17;;;18.55;;
1759;SDS011;877;46.266;20.062;2023-02-14T14:08:52;26.15;;;15.55;;
1759;SDS011;877;46.266;20.062;2023-02-14T14:16:33;25.17;;;15.48;;
1759;SDS011;877;46.266;20.062;2023-02-14T14:21:40;31.95;;;19.35;;
1759;SDS011;877;46.266;20.062;2023-02-14T14:26:44;26.00;;;15.98;;
1759;SDS011;877;46.266;20.062;2023-02-14T14:32:08;23.85;;;14.55;;
1759;SDS011;877;46.266;20.062;2023-02-14T14:34:34;30.42;;;17.58;;
1759;SDS011;877;46.266;20.062;2023-02-14T14:37:04;23.30;;;16.27;;
1759;SDS011;877;46.266;20.062;2023-02-14T14:39:32;35.22;;;22.77;;
1759;SDS011;877;46.266;20.062;2023-02-14T14:42:13;31.58;;;16.80;;
1759;SDS011;877;46.266;20.062;2023-02-14T14:44:44;27.40;;;16.70;;
1759;SDS011;877;46.266;20.062;2023-02-14T14:47:18;70.10;;;42.22;;
1759;SDS011;877;46.266;20.062;2023-02-14T14:49:45;99.57;;;52.67;;
1759;SDS011;877;46.266;20.062;2023-02-14T14:52:25;30.17;;;18.95;;
1759;SDS011;877;46.266;20.062;2023-02-14T14:54:54;25.70;;;17.13;;
1759;SDS011;877;46.266;20.062;2023-02-14T14:57:21;29.65;;;16.30;;
1759;SDS011;877;46.266;20.062;2023-02-14T14:59:48;29.25;;;16.52;;
1759;SDS011;877;46.266;20.062;2023-02-14T15:02:22;31.80;;;16.40;;
1759;SDS011;877;46.266;20.062;2023-02-14T15:04:52;31.48;;;18.38;;
1759;SDS011;877;46.266;20.062;2023-02-14T15:07:31;29.15;;;18.45;;
1759;SDS011;877;46.266;20.062;2023-02-14T15:09:59;39.50;;;22.45;;
1759;SDS011;877;46.266;20.062;2023-02-14T15:12:27;37.63;;;22.52;;
1759;SDS011;877;46.266;20.062;2023-02-14T15:15:14;34.20;;;22.63;;
1759;SDS011;877;46.266;20.062;2023-02-14T15:17:40;66.80;;;36.95;;
1759;SDS011;877;46.266;20.062;2023-02-14T15:20:16;271.10;;;105.85;;
1759;SDS011;877;46.266;20.062;2023-02-14T15:22:44;103.38;;;47.42;;
1759;SDS011;877;46.266;20.062;2023-02-14T15:25:18;104.25;;;48.78;;
1759;SDS011;877;46.266;20.062;2023-02-14T15:27:45;95.55;;;47.95;;
1759;SDS011;877;46.266;20.062;2023-02-14T15:30:30;89.70;;;48.83;;
1759;SDS011;877;46.266;20.062;2023-02-14T15:33:04;95.45;;;50.28;;
1759;SDS011;877;46.266;20.062;2023-02-14T15:35:38;105.50;;;51.67;;
1759;SDS011;877;46.266;20.062;2023-02-14T15:38:09;67.60;;;38.40;;
1759;SDS011;877;46.266;20.062;2023-02-14T15:40:36;54.25;;;35.95;;
1759;SDS011;877;46.266;20.062;2023-02-14T15:43:13;56.45;;;34.83;;
1759;SDS011;877;46.266;20.062;2023-02-14T15:45:52;51.47;;;31.95;;
1759;SDS011;877;46.266;20.062;2023-02-14T15:48:31;50.60;;;26.55;;
1759;SDS011;877;46.266;20.062;2023-02-14T15:51:00;45.38;;;27.88;;
1759;SDS011;877;46.266;20.062;2023-02-14T15:56:04;49.13;;;28.38;;
1759;SDS011;877;46.266;20.062;2023-02-14T15:58:31;49.40;;;29.92;;
1759;SDS011;877;46.266;20.062;2023-02-14T16:01:10;54.35;;;30.95;;
1759;SDS011;877;46.266;20.062;2023-02-14T16:03:41;50.47;;;29.55;;
1759;SDS011;877;46.266;20.062;2023-02-14T16:11:46;56.30;;;30.52;;
1759;SDS011;877;46.266;20.062;2023-02-14T16:19:33;55.63;;;30.80;;
1759;SDS011;877;46.266;20.062;2023-02-14T16:24:30;57.38;;;30.90;;
1759;SDS011;877;46.266;20.062;2023-02-14T16:26:56;55.83;;;34.10;;
1759;SDS011;877;46.266;20.062;2023-02-14T16:29:22;67.63;;;39.05;;
1759;SDS011;877;46.266;20.062;2023-02-14T16:31:49;56.47;;;35.50;;
1759;SDS011;877;46.266;20.062;2023-02-14T16:36:46;52.70;;;34.70;;
1759;SDS011;877;46.266;20.062;2023-02-14T16:39:16;55.00;;;34.67;;
1759;SDS011;877;46.266;20.062;2023-02-14T16:41:43;85.88;;;44.83;;
1759;SDS011;877;46.266;20.062;2023-02-14T16:44:16;90.35;;;47.50;;
1759;SDS011;877;46.266;20.062;2023-02-14T16:46:43;79.15;;;45.85;;
1759;SDS011;877;46.266;20.062;2023-02-14T16:49:11;86.22;;;47.78;;
1759;SDS011;877;46.266;20.062;2023-02-14T16:51:38;78.22;;;47.63;;
1759;SDS011;877;46.266;20.062;2023-02-14T16:54:11;100.13;;;49.30;;
1759;SDS011;877;46.266;20.062;2023-02-14T16:56:42;82.05;;;45.25;;
1759;SDS011;877;46.266;20.062;2023-02-14T16:59:09;76.53;;;42.22;;
1759;SDS011;877;46.266;20.062;2023-02-14T17:01:39;78.75;;;47.78;;
1759;SDS011;877;46.266;20.062;2023-02-14T17:04:06;94.47;;;50.83;;
1759;SDS011;877;46.266;20.062;2023-02-14T17:06:35;102.93;;;55.22;;
1759;SDS011;877;46.266;20.062;2023-02-14T17:09:03;110.93;;;54.08;;
1759;SDS011;877;46.266;20.062;2023-02-14T17:11:31;108.47;;;62.60;;
1759;SDS011;877;46.266;20.062;2023-02-14T17:14:01;149.00;;;72.70;;
1759;SDS011;877;46.266;20.062;2023-02-14T17:16:29;153.32;;;74.25;;
1759;SDS011;877;46.266;20.062;2023-02-14T17:18:55;146.98;;;75.18;;
1759;SDS011;877;46.266;20.062;2023-02-14T17:21:22;152.73;;;79.13;;
1759;SDS011;877;46.266;20.062;2023-02-14T17:23:49;137.65;;;70.95;;
1759;SDS011;877;46.266;20.062;2023-02-14T17:26:16;149.80;;;75.63;;
1759;SDS011;877;46.266;20.062;2023-02-14T17:28:44;138.25;;;70.13;;
1759;SDS011;877;46.266;20.062;2023-02-14T17:31:12;149.13;;;75.82;;
1759;SDS011;877;46.266;20.062;2023-02-14T17:33:38;155.60;;;75.07;;
1759;SDS011;877;46.266;20.062;2023-02-14T17:36:08;150.38;;;77.30;;
1759;SDS011;877;46.266;20.062;2023-02-14T17:38:35;140.27;;;72.45;;
1759;SDS011;877;46.266;20.062;2023-02-14T17:41:12;138.80;;;77.70;;
1759;SDS011;877;46.266;20.062;2023-02-14T17:46:07;152.93;;;80.40;;
1759;SDS011;877;46.266;20.062;2023-02-14T17:48:33;163.80;;;81.72;;
1759;SDS011;877;46.266;20.062;2023-02-14T17:51:03;147.95;;;79.25;;
1759;SDS011;877;46.266;20.062;2023-02-14T17:53:29;182.30;;;105.15;;
1759;SDS011;877;46.266;20.062;2023-02-14T17:55:57;160.00;;;75.50;;
1759;SDS011;877;46.266;20.062;2023-02-14T17:58:23;144.80;;;77.38;;
1759;SDS011;877;46.266;20.062;2023-02-14T18:00:49;156.02;;;78.55;;
1759;SDS011;877;46.266;20.062;2023-02-14T18:03:15;140.60;;;76.85;;
1759;SDS011;877;46.266;20.062;2023-02-14T18:05:41;147.75;;;78.40;;
1759;SDS011;877;46.266;20.062;2023-02-14T18:08:07;160.35;;;83.00;;
1759;SDS011;877;46.266;20.062;2023-02-14T18:10:33;170.23;;;87.22;;
1759;SDS011;877;46.266;20.062;2023-02-14T18:12:59;164.18;;;87.13;;
1759;SDS011;877;46.266;20.062;2023-02-14T18:15:26;188.13;;;94.32;;
1759;SDS011;877;46.266;20.062;2023-02-14T18:17:52;185.65;;;84.10;;
1759;SDS011;877;46.266;20.062;2023-02-14T18:20:18;200.88;;;96.30;;
1759;SDS011;877;46.266;20.062;2023-02-14T18:22:44;202.90;;;100.15;;
1759;SDS011;877;46.266;20.062;2023-02-14T18:25:10;219.88;;;107.40;;
1759;SDS011;877;46.266;20.062;2023-02-14T18:27:36;215.25;;;108.75;;
1759;SDS011;877;46.266;20.062;2023-02-14T18:30:04;250.68;;;120.43;;
1759;SDS011;877;46.266;20.062;2023-02-14T18:32:30;246.40;;;123.43;;
1759;SDS011;877;46.266;20.062;2023-02-14T18:34:56;278.35;;;136.27;;
1759;SDS011;877;46.266;20.062;2023-02-14T18:37:22;267.30;;;136.88;;
1759;SDS011;877;46.266;20.062;2023-02-14T18:39:48;262.63;;;131.38;;
1759;SDS011;877;46.266;20.062;2023-02-14T18:42:14;262.08;;;125.43;;
1759;SDS011;877;46.266;20.062;2023-02-14T18:44:40;526.13;;;322.17;;
1759;SDS011;877;46.266;20.062;2023-02-14T18:47:06;247.07;;;125.07;;
1759;SDS011;877;46.266;20.062;2023-02-14T18:49:32;234.82;;;117.68;;
1759;SDS011;877;46.266;20.062;2023-02-14T18:51:59;221.65;;;109.70;;
1759;SDS011;877;46.266;20.062;2023-02-14T18:54:26;230.00;;;110.13;;
1759;SDS011;877;46.266;20.062;2023-02-14T18:56:53;237.65;;;116.32;;
1759;SDS011;877;46.266;20.062;2023-02-14T18:59:21;234.55;;;110.75;;
1759;SDS011;877;46.266;20.062;2023-02-14T19:01:47;247.68;;;109.40;;
1759;SDS011;877;46.266;20.062;2023-02-14T19:04:18;231.85;;;112.78;;
1759;SDS011;877;46.266;20.062;2023-02-14T19:06:45;215.65;;;106.90;;
1759;SDS011;877;46.266;20.062;2023-02-14T19:09:14;223.23;;;107.78;;
1759;SDS011;877;46.266;20.062;2023-02-14T19:11:50;220.07;;;108.43;;
1759;SDS011;877;46.266;20.062;2023-02-14T19:14:17;214.30;;;106.45;;
1759;SDS011;877;46.266;20.062;2023-02-14T19:16:47;206.50;;;101.90;;
1759;SDS011;877;46.266;20.062;2023-02-14T19:19:26;223.85;;;105.45;;
1759;SDS011;877;46.266;20.062;2023-02-14T19:21:58;223.90;;;107.28;;
1759;SDS011;877;46.266;20.062;2023-02-14T19:24:24;198.13;;;101.20;;
1759;SDS011;877;46.266;20.062;2023-02-14T19:26:52;207.35;;;101.95;;